sensor_id;sensor_type;location;lat;lon;timestamp;P1;durP1;ratioP1;P2;durP2;ratioP2
53867;SDS011;41577;47.470;19.080;2022-11-20T00:00:02;21.13;;;16.70;;
53867;SDS011;41577;47.470;19.080;2022-11-20T00:00:20;20.05;;;16.33;;
53867;SDS011;41577;47.470;19.080;2022-11-20T00:00:34;22.17;;;16.40;;
53867;SDS011;41577;47.470;19.080;2022-11-20T00:00:48;24.15;;;16.73;;
53867;SDS011;41577;47.470;19.080;2022-11-20T00:01:05;24.27;;;16.83;;
53867;SDS011;41577;47.470;19.080;2022-11-20T00:01:20;22.45;;;16.52;;
53867;SDS011;41577;47.470;19.080;2022-11-20T00:01:35;21.75;;;16.40;;
53867;SDS011;41577;47.470;19.080;2022-11-20T00:01:49;23.65;;;16.55;;
53867;SDS011;41577;47.470;19.080;2022-11-20T00:02:03;21.20;;;16.20;;
53867;SDS011;41577;47.470;19.080;2022-11-20T00:02:16;20.35;;;16.10;;
53867;SDS011;41577;47.470;19.080;2022-11-20T00:02:30;23.57;;;15.97;;
53867;SDS011;41577;47.470;19.080;2022-11-20T00:02:44;24.47;;;16.13;;
53867;SDS011;41577;47.470;19.080;2022-11-20T00:02:58;21.83;;;16.85;;
53867;SDS011;41577;47.470;19.080;2022-11-20T00:03:12;22.00;;;17.13;;
53867;SDS011;41577;47.470;19.080;2022-11-20T00:03:26;22.13;;;17.57;;
53867;SDS011;41577;47.470;19.080;2022-11-20T00:03:39;23.15;;;17.65;;
53867;SDS011;41577;47.470;19.080;2022-11-20T00:03:54;23.40;;;17.20;;
53867;SDS011;41577;47.470;19.080;2022-11-20T00:04:09;23.13;;;16.83;;
53867;SDS011;41577;47.470;19.080;2022-11-20T00:04:24;25.58;;;16.95;;
53867;SDS011;41577;47.470;19.080;2022-11-20T00:04:38;24.10;;;16.97;;
53867;SDS011;41577;47.470;19.080;2022-11-20T00:04:51;22.45;;;16.48;;
53867;SDS011;41577;47.470;19.080;2022-11-20T00:05:08;22.95;;;16.98;;
53867;SDS011;41577;47.470;19.080;2022-11-20T00:05:22;23.33;;;17.45;;
53867;SDS011;41577;47.470;19.080;2022-11-20T00:05:37;25.10;;;17.83;;
53867;SDS011;41577;47.470;19.080;2022-11-20T00:05:51;26.10;;;18.70;;
53867;SDS011;41577;47.470;19.080;2022-11-20T00:06:05;25.57;;;18.77;;
53867;SDS011;41577;47.470;19.080;2022-11-20T00:06:20;24.52;;;18.10;;
53867;SDS011;41577;47.470;19.080;2022-11-20T00:06:34;25.58;;;18.88;;
53867;SDS011;41577;47.470;19.080;2022-11-20T00:06:48;24.00;;;18.45;;
53867;SDS011;41577;47.470;19.080;2022-11-20T00:07:02;23.77;;;18.23;;
53867;SDS011;41577;47.470;19.080;2022-11-20T00:07:16;24.63;;;18.90;;
53867;SDS011;41577;47.470;19.080;2022-11-20T00:07:30;23.67;;;19.02;;
53867;SDS011;41577;47.470;19.080;2022-11-20T00:07:46;25.88;;;18.92;;
53867;SDS011;41577;47.470;19.080;2022-11-20T00:07:59;26.25;;;18.35;;
53867;SDS011;41577;47.470;19.080;2022-11-20T00:08:14;24.35;;;18.23;;
53867;SDS011;41577;47.470;19.080;2022-11-20T00:08:28;25.73;;;18.83;;
53867;SDS011;41577;47.470;19.080;2022-11-20T00:08:42;24.85;;;18.92;;
53867;SDS011;41577;47.470;19.080;2022-11-20T00:08:58;24.92;;;19.13;;
53867;SDS011;41577;47.470;19.080;2022-11-20T00:09:13;24.67;;;18.33;;
53867;SDS011;41577;47.470;19.080;2022-11-20T00:09:27;25.10;;;17.77;;
53867;SDS011;41577;47.470;19.080;2022-11-20T00:09:41;25.73;;;18.20;;
53867;SDS011;41577;47.470;19.080;2022-11-20T00:09:55;24.13;;;18.52;;
53867;SDS011;41577;47.470;19.080;2022-11-20T00:10:09;23.27;;;18.35;;
53867;SDS011;41577;47.470;19.080;2022-11-20T00:10:23;22.25;;;18.25;;
53867;SDS011;41577;47.470;19.080;2022-11-20T00:10:37;26.75;;;19.17;;
53867;SDS011;41577;47.470;19.080;2022-11-20T00:10:51;27.80;;;18.88;;
53867;SDS011;41577;47.470;19.080;2022-11-20T00:11:05;26.73;;;18.27;;
53867;SDS011;41577;47.470;19.080;2022-11-20T00:11:21;26.40;;;18.17;;
53867;SDS011;41577;47.470;19.080;2022-11-20T00:11:35;27.02;;;18.46;;
53867;SDS011;41577;47.470;19.080;2022-11-20T00:11:49;26.27;;;18.27;;
53867;SDS011;41577;47.470;19.080;2022-11-20T00:12:04;26.08;;;18.58;;
53867;SDS011;41577;47.470;19.080;2022-11-20T00:12:18;25.05;;;18.58;;
53867;SDS011;41577;47.470;19.080;2022-11-20T00:12:32;24.85;;;18.10;;
53867;SDS011;41577;47.470;19.080;2022-11-20T00:12:46;26.48;;;17.77;;
53867;SDS011;41577;47.470;19.080;2022-11-20T00:13:00;24.65;;;18.33;;
53867;SDS011;41577;47.470;19.080;2022-11-20T00:13:14;27.42;;;19.23;;
53867;SDS011;41577;47.470;19.080;2022-11-20T00:13:28;27.20;;;18.50;;
53867;SDS011;41577;47.470;19.080;2022-11-20T00:13:42;24.03;;;18.33;;
53867;SDS011;41577;47.470;19.080;2022-11-20T00:13:57;23.83;;;18.83;;
53867;SDS011;41577;47.470;19.080;2022-11-20T00:14:12;23.98;;;18.10;;
53867;SDS011;41577;47.470;19.080;2022-11-20T00:14:26;25.48;;;18.42;;
53867;SDS011;41577;47.470;19.080;2022-11-20T00:14:40;24.03;;;18.67;;
53867;SDS011;41577;47.470;19.080;2022-11-20T00:14:54;22.25;;;17.73;;
53867;SDS011;41577;47.470;19.080;2022-11-20T00:15:08;24.85;;;18.60;;
53867;SDS011;41577;47.470;19.080;2022-11-20T00:15:22;25.10;;;18.98;;
53867;SDS011;41577;47.470;19.080;2022-11-20T00:15:36;23.05;;;18.40;;
53867;SDS011;41577;47.470;19.080;2022-11-20T00:15:56;23.98;;;18.58;;
53867;SDS011;41577;47.470;19.080;2022-11-20T00:16:11;25.27;;;18.88;;
53867;SDS011;41577;47.470;19.080;2022-11-20T00:16:26;25.70;;;18.67;;
53867;SDS011;41577;47.470;19.080;2022-11-20T00:16:42;25.68;;;19.04;;
53867;SDS011;41577;47.470;19.080;2022-11-20T00:16:56;23.17;;;19.17;;
53867;SDS011;41577;47.470;19.080;2022-11-20T00:17:10;23.27;;;19.17;;
53867;SDS011;41577;47.470;19.080;2022-11-20T00:17:23;24.00;;;19.30;;
53867;SDS011;41577;47.470;19.080;2022-11-20T00:17:37;23.67;;;18.60;;
53867;SDS011;41577;47.470;19.080;2022-11-20T00:17:51;22.38;;;18.23;;
53867;SDS011;41577;47.470;19.080;2022-11-20T00:18:04;25.48;;;19.15;;
53867;SDS011;41577;47.470;19.080;2022-11-20T00:18:18;26.55;;;19.98;;
53867;SDS011;41577;47.470;19.080;2022-11-20T00:18:33;24.85;;;19.33;;
53867;SDS011;41577;47.470;19.080;2022-11-20T00:18:48;24.48;;;18.85;;
53867;SDS011;41577;47.470;19.080;2022-11-20T00:19:02;25.40;;;19.48;;
53867;SDS011;41577;47.470;19.080;2022-11-20T00:19:15;29.33;;;20.05;;
53867;SDS011;41577;47.470;19.080;2022-11-20T00:19:29;30.30;;;20.30;;
53867;SDS011;41577;47.470;19.080;2022-11-20T00:19:42;28.63;;;19.90;;
53867;SDS011;41577;47.470;19.080;2022-11-20T00:19:56;29.45;;;19.70;;
53867;SDS011;41577;47.470;19.080;2022-11-20T00:20:12;28.65;;;19.55;;
53867;SDS011;41577;47.470;19.080;2022-11-20T00:20:26;26.77;;;19.23;;
53867;SDS011;41577;47.470;19.080;2022-11-20T00:20:41;29.23;;;19.92;;
53867;SDS011;41577;47.470;19.080;2022-11-20T00:20:59;30.13;;;20.70;;
53867;SDS011;41577;47.470;19.080;2022-11-20T00:21:14;26.27;;;19.95;;
53867;SDS011;41577;47.470;19.080;2022-11-20T00:21:29;24.52;;;19.50;;
53867;SDS011;41577;47.470;19.080;2022-11-20T00:21:43;26.50;;;19.48;;
53867;SDS011;41577;47.470;19.080;2022-11-20T00:21:57;26.95;;;19.42;;
53867;SDS011;41577;47.470;19.080;2022-11-20T00:22:11;25.35;;;19.42;;
53867;SDS011;41577;47.470;19.080;2022-11-20T00:22:24;25.95;;;19.50;;
53867;SDS011;41577;47.470;19.080;2022-11-20T00:22:38;30.53;;;20.13;;
53867;SDS011;41577;47.470;19.080;2022-11-20T00:22:52;29.67;;;19.73;;
53867;SDS011;41577;47.470;19.080;2022-11-20T00:23:06;25.90;;;19.25;;
53867;SDS011;41577;47.470;19.080;2022-11-20T00:23:20;26.73;;;20.27;;
53867;SDS011;41577;47.470;19.080;2022-11-20T00:23:34;26.07;;;20.60;;
53867;SDS011;41577;47.470;19.080;2022-11-20T00:23:48;25.50;;;20.27;;
53867;SDS011;41577;47.470;19.080;2022-11-20T00:24:02;24.95;;;20.20;;
53867;SDS011;41577;47.470;19.080;2022-11-20T00:24:16;25.52;;;19.73;;
53867;SDS011;41577;47.470;19.080;2022-11-20T00:24:30;28.25;;;19.88;;
53867;SDS011;41577;47.470;19.080;2022-11-20T00:24:45;30.75;;;20.63;;
53867;SDS011;41577;47.470;19.080;2022-11-20T00:25:00;32.05;;;21.10;;
53867;SDS011;41577;47.470;19.080;2022-11-20T00:25:14;29.08;;;20.30;;
53867;SDS011;41577;47.470;19.080;2022-11-20T00:25:28;27.48;;;19.25;;
53867;SDS011;41577;47.470;19.080;2022-11-20T00:25:42;27.00;;;19.23;;
53867;SDS011;41577;47.470;19.080;2022-11-20T00:25:56;25.27;;;19.58;;
53867;SDS011;41577;47.470;19.080;2022-11-20T00:26:12;26.45;;;19.88;;
53867;SDS011;41577;47.470;19.080;2022-11-20T00:26:27;30.25;;;21.25;;
53867;SDS011;41577;47.470;19.080;2022-11-20T00:26:42;31.13;;;21.38;;
53867;SDS011;41577;47.470;19.080;2022-11-20T00:26:55;28.98;;;20.63;;
53867;SDS011;41577;47.470;19.080;2022-11-20T00:27:09;29.65;;;21.08;;
53867;SDS011;41577;47.470;19.080;2022-11-20T00:27:23;27.80;;;20.33;;
53867;SDS011;41577;47.470;19.080;2022-11-20T00:27:37;26.47;;;20.37;;
53867;SDS011;41577;47.470;19.080;2022-11-20T00:27:51;26.67;;;20.90;;
53867;SDS011;41577;47.470;19.080;2022-11-20T00:28:05;25.75;;;20.65;;
53867;SDS011;41577;47.470;19.080;2022-11-20T00:28:19;26.23;;;20.58;;
53867;SDS011;41577;47.470;19.080;2022-11-20T00:28:33;28.38;;;21.10;;
53867;SDS011;41577;47.470;19.080;2022-11-20T00:28:49;27.08;;;20.25;;
53867;SDS011;41577;47.470;19.080;2022-11-20T00:29:03;26.38;;;19.48;;
53867;SDS011;41577;47.470;19.080;2022-11-20T00:29:17;27.58;;;19.30;;
53867;SDS011;41577;47.470;19.080;2022-11-20T00:29:32;28.25;;;19.48;;
53867;SDS011;41577;47.470;19.080;2022-11-20T00:29:46;27.98;;;19.80;;
53867;SDS011;41577;47.470;19.080;2022-11-20T00:29:59;27.30;;;20.23;;
53867;SDS011;41577;47.470;19.080;2022-11-20T00:30:26;27.93;;;20.33;;
53867;SDS011;41577;47.470;19.080;2022-11-20T00:30:40;29.02;;;20.30;;
53867;SDS011;41577;47.470;19.080;2022-11-20T00:30:59;29.80;;;20.63;;
53867;SDS011;41577;47.470;19.080;2022-11-20T00:31:14;29.10;;;20.83;;
53867;SDS011;41577;47.470;19.080;2022-11-20T00:31:28;29.85;;;21.00;;
53867;SDS011;41577;47.470;19.080;2022-11-20T00:31:42;29.85;;;21.17;;
53867;SDS011;41577;47.470;19.080;2022-11-20T00:31:57;28.90;;;21.52;;
53867;SDS011;41577;47.470;19.080;2022-11-20T00:32:10;27.05;;;21.98;;
53867;SDS011;41577;47.470;19.080;2022-11-20T00:32:24;27.45;;;22.00;;
53867;SDS011;41577;47.470;19.080;2022-11-20T00:32:38;27.83;;;21.42;;
53867;SDS011;41577;47.470;19.080;2022-11-20T00:32:52;28.92;;;21.63;;
53867;SDS011;41577;47.470;19.080;2022-11-20T00:33:05;31.17;;;21.93;;
53867;SDS011;41577;47.470;19.080;2022-11-20T00:33:19;28.40;;;20.33;;
53867;SDS011;41577;47.470;19.080;2022-11-20T00:33:33;27.73;;;20.25;;
53867;SDS011;41577;47.470;19.080;2022-11-20T00:33:47;29.38;;;21.27;;
53867;SDS011;41577;47.470;19.080;2022-11-20T00:34:01;28.40;;;21.67;;
53867;SDS011;41577;47.470;19.080;2022-11-20T00:34:15;32.00;;;22.13;;
53867;SDS011;41577;47.470;19.080;2022-11-20T00:34:28;31.80;;;22.17;;
53867;SDS011;41577;47.470;19.080;2022-11-20T00:34:42;28.37;;;21.80;;
53867;SDS011;41577;47.470;19.080;2022-11-20T00:34:56;26.15;;;21.23;;
53867;SDS011;41577;47.470;19.080;2022-11-20T00:35:11;26.85;;;21.27;;
53867;SDS011;41577;47.470;19.080;2022-11-20T00:35:25;28.33;;;21.40;;
53867;SDS011;41577;47.470;19.080;2022-11-20T00:35:39;30.20;;;21.58;;
53867;SDS011;41577;47.470;19.080;2022-11-20T00:35:53;31.48;;;21.33;;
53867;SDS011;41577;47.470;19.080;2022-11-20T00:36:12;27.90;;;20.58;;
53867;SDS011;41577;47.470;19.080;2022-11-20T00:36:27;27.83;;;20.17;;
53867;SDS011;41577;47.470;19.080;2022-11-20T00:36:42;30.70;;;20.30;;
53867;SDS011;41577;47.470;19.080;2022-11-20T00:36:56;30.02;;;21.10;;
53867;SDS011;41577;47.470;19.080;2022-11-20T00:37:10;29.10;;;21.90;;
53867;SDS011;41577;47.470;19.080;2022-11-20T00:37:24;28.88;;;22.02;;
53867;SDS011;41577;47.470;19.080;2022-11-20T00:37:37;30.83;;;22.30;;
53867;SDS011;41577;47.470;19.080;2022-11-20T00:37:52;30.00;;;21.55;;
53867;SDS011;41577;47.470;19.080;2022-11-20T00:38:06;29.92;;;20.73;;
53867;SDS011;41577;47.470;19.080;2022-11-20T00:38:20;32.15;;;21.42;;
53867;SDS011;41577;47.470;19.080;2022-11-20T00:38:34;30.83;;;21.67;;
53867;SDS011;41577;47.470;19.080;2022-11-20T00:38:50;28.90;;;21.35;;
53867;SDS011;41577;47.470;19.080;2022-11-20T00:39:05;28.88;;;21.65;;
53867;SDS011;41577;47.470;19.080;2022-11-20T00:39:19;29.15;;;21.30;;
53867;SDS011;41577;47.470;19.080;2022-11-20T00:39:33;31.67;;;21.20;;
53867;SDS011;41577;47.470;19.080;2022-11-20T00:39:46;32.00;;;21.73;;
53867;SDS011;41577;47.470;19.080;2022-11-20T00:40:00;28.08;;;21.52;;
53867;SDS011;41577;47.470;19.080;2022-11-20T00:40:14;27.10;;;21.30;;
53867;SDS011;41577;47.470;19.080;2022-11-20T00:40:28;28.05;;;21.98;;
53867;SDS011;41577;47.470;19.080;2022-11-20T00:40:42;29.67;;;21.80;;
53867;SDS011;41577;47.470;19.080;2022-11-20T00:40:56;29.30;;;21.13;;
53867;SDS011;41577;47.470;19.080;2022-11-20T00:41:11;29.05;;;21.20;;
53867;SDS011;41577;47.470;19.080;2022-11-20T00:41:26;28.85;;;21.17;;
53867;SDS011;41577;47.470;19.080;2022-11-20T00:41:41;28.88;;;21.22;;
53867;SDS011;41577;47.470;19.080;2022-11-20T00:41:55;31.52;;;22.35;;
53867;SDS011;41577;47.470;19.080;2022-11-20T00:42:09;32.33;;;22.55;;
53867;SDS011;41577;47.470;19.080;2022-11-20T00:42:24;31.77;;;22.13;;
53867;SDS011;41577;47.470;19.080;2022-11-20T00:42:38;32.22;;;22.38;;
53867;SDS011;41577;47.470;19.080;2022-11-20T00:42:52;32.53;;;22.45;;
53867;SDS011;41577;47.470;19.080;2022-11-20T00:43:06;28.50;;;20.80;;
53867;SDS011;41577;47.470;19.080;2022-11-20T00:43:20;24.53;;;20.10;;
53867;SDS011;41577;47.470;19.080;2022-11-20T00:43:33;27.00;;;21.25;;
53867;SDS011;41577;47.470;19.080;2022-11-20T00:43:47;28.08;;;21.20;;
53867;SDS011;41577;47.470;19.080;2022-11-20T00:44:01;27.83;;;20.52;;
53867;SDS011;41577;47.470;19.080;2022-11-20T00:44:15;30.58;;;21.65;;
53867;SDS011;41577;47.470;19.080;2022-11-20T00:44:28;31.90;;;22.70;;
53867;SDS011;41577;47.470;19.080;2022-11-20T00:44:43;30.27;;;22.27;;
53867;SDS011;41577;47.470;19.080;2022-11-20T00:44:56;31.08;;;21.42;;
53867;SDS011;41577;47.470;19.080;2022-11-20T00:45:10;31.77;;;21.38;;
53867;SDS011;41577;47.470;19.080;2022-11-20T00:45:25;29.17;;;21.50;;
53867;SDS011;41577;47.470;19.080;2022-11-20T00:45:38;27.20;;;20.83;;
53867;SDS011;41577;47.470;19.080;2022-11-20T00:45:57;27.25;;;21.02;;
53867;SDS011;41577;47.470;19.080;2022-11-20T00:46:12;27.27;;;22.20;;
53867;SDS011;41577;47.470;19.080;2022-11-20T00:46:27;28.92;;;20.85;;
53867;SDS011;41577;47.470;19.080;2022-11-20T00:46:41;31.13;;;20.33;;
53867;SDS011;41577;47.470;19.080;2022-11-20T00:46:54;29.90;;;20.88;;
53867;SDS011;41577;47.470;19.080;2022-11-20T00:47:08;30.00;;;21.05;;
53867;SDS011;41577;47.470;19.080;2022-11-20T00:47:22;27.95;;;20.52;;
53867;SDS011;41577;47.470;19.080;2022-11-20T00:47:36;26.33;;;20.48;;
53867;SDS011;41577;47.470;19.080;2022-11-20T00:47:50;27.73;;;21.08;;
53867;SDS011;41577;47.470;19.080;2022-11-20T00:48:04;28.13;;;21.15;;
53867;SDS011;41577;47.470;19.080;2022-11-20T00:48:18;27.73;;;20.73;;
53867;SDS011;41577;47.470;19.080;2022-11-20T00:48:32;29.15;;;21.13;;
53867;SDS011;41577;47.470;19.080;2022-11-20T00:48:46;28.38;;;20.90;;
53867;SDS011;41577;47.470;19.080;2022-11-20T00:49:00;30.42;;;21.38;;
53867;SDS011;41577;47.470;19.080;2022-11-20T00:49:14;31.75;;;21.20;;
53867;SDS011;41577;47.470;19.080;2022-11-20T00:49:28;29.42;;;20.63;;
53867;SDS011;41577;47.470;19.080;2022-11-20T00:49:42;27.67;;;20.42;;
53867;SDS011;41577;47.470;19.080;2022-11-20T00:49:56;25.98;;;20.70;;
53867;SDS011;41577;47.470;19.080;2022-11-20T00:50:09;26.90;;;20.73;;
53867;SDS011;41577;47.470;19.080;2022-11-20T00:50:25;30.00;;;21.45;;
53867;SDS011;41577;47.470;19.080;2022-11-20T00:50:38;30.13;;;20.95;;
53867;SDS011;41577;47.470;19.080;2022-11-20T00:50:53;27.27;;;20.45;;
53867;SDS011;41577;47.470;19.080;2022-11-20T00:51:07;27.52;;;20.83;;
53867;SDS011;41577;47.470;19.080;2022-11-20T00:51:23;28.30;;;21.42;;
53867;SDS011;41577;47.470;19.080;2022-11-20T00:51:39;26.25;;;20.80;;
53867;SDS011;41577;47.470;19.080;2022-11-20T00:51:52;26.38;;;19.92;;
53867;SDS011;41577;47.470;19.080;2022-11-20T00:52:06;30.73;;;20.25;;
53867;SDS011;41577;47.470;19.080;2022-11-20T00:52:20;31.52;;;20.60;;
53867;SDS011;41577;47.470;19.080;2022-11-20T00:52:34;26.45;;;20.13;;
53867;SDS011;41577;47.470;19.080;2022-11-20T00:52:49;26.52;;;20.23;;
53867;SDS011;41577;47.470;19.080;2022-11-20T00:53:02;26.67;;;20.08;;
53867;SDS011;41577;47.470;19.080;2022-11-20T00:53:16;26.80;;;20.40;;
53867;SDS011;41577;47.470;19.080;2022-11-20T00:53:30;29.75;;;20.75;;
53867;SDS011;41577;47.470;19.080;2022-11-20T00:53:44;30.73;;;20.80;;
53867;SDS011;41577;47.470;19.080;2022-11-20T00:53:58;29.33;;;21.00;;
53867;SDS011;41577;47.470;19.080;2022-11-20T00:54:12;28.40;;;21.23;;
53867;SDS011;41577;47.470;19.080;2022-11-20T00:54:28;27.48;;;20.45;;
53867;SDS011;41577;47.470;19.080;2022-11-20T00:54:41;27.10;;;19.83;;
53867;SDS011;41577;47.470;19.080;2022-11-20T00:54:55;28.55;;;20.23;;
53867;SDS011;41577;47.470;19.080;2022-11-20T00:55:08;27.25;;;20.40;;
53867;SDS011;41577;47.470;19.080;2022-11-20T00:55:22;25.75;;;20.27;;
53867;SDS011;41577;47.470;19.080;2022-11-20T00:55:36;24.83;;;20.20;;
53867;SDS011;41577;47.470;19.080;2022-11-20T00:55:53;25.48;;;20.23;;
53867;SDS011;41577;47.470;19.080;2022-11-20T00:56:09;26.90;;;19.80;;
53867;SDS011;41577;47.470;19.080;2022-11-20T00:56:24;25.80;;;19.88;;
53867;SDS011;41577;47.470;19.080;2022-11-20T00:56:39;27.30;;;20.15;;
53867;SDS011;41577;47.470;19.080;2022-11-20T00:56:52;29.92;;;20.13;;
53867;SDS011;41577;47.470;19.080;2022-11-20T00:57:06;32.58;;;20.08;;
53867;SDS011;41577;47.470;19.080;2022-11-20T00:57:20;31.63;;;19.93;;
53867;SDS011;41577;47.470;19.080;2022-11-20T00:57:34;27.50;;;19.98;;
53867;SDS011;41577;47.470;19.080;2022-11-20T00:57:48;27.90;;;20.65;;
53867;SDS011;41577;47.470;19.080;2022-11-20T00:58:02;31.85;;;21.10;;
53867;SDS011;41577;47.470;19.080;2022-11-20T00:58:16;30.23;;;20.55;;
53867;SDS011;41577;47.470;19.080;2022-11-20T00:58:30;29.30;;;20.63;;
53867;SDS011;41577;47.470;19.080;2022-11-20T00:58:45;27.08;;;19.98;;
53867;SDS011;41577;47.470;19.080;2022-11-20T00:59:01;27.60;;;19.15;;
53867;SDS011;41577;47.470;19.080;2022-11-20T00:59:15;27.92;;;19.30;;
53867;SDS011;41577;47.470;19.080;2022-11-20T00:59:29;27.13;;;19.52;;
53867;SDS011;41577;47.470;19.080;2022-11-20T00:59:42;26.93;;;19.67;;
53867;SDS011;41577;47.470;19.080;2022-11-20T00:59:56;25.33;;;19.40;;
53867;SDS011;41577;47.470;19.080;2022-11-20T01:00:10;24.75;;;19.38;;
53867;SDS011;41577;47.470;19.080;2022-11-20T01:00:24;25.85;;;20.13;;
53867;SDS011;41577;47.470;19.080;2022-11-20T01:00:38;27.63;;;20.55;;
53867;SDS011;41577;47.470;19.080;2022-11-20T01:00:52;28.63;;;20.73;;
53867;SDS011;41577;47.470;19.080;2022-11-20T01:01:06;26.67;;;20.42;;
53867;SDS011;41577;47.470;19.080;2022-11-20T01:01:22;26.70;;;20.42;;
53867;SDS011;41577;47.470;19.080;2022-11-20T01:01:37;26.67;;;20.48;;
53867;SDS011;41577;47.470;19.080;2022-11-20T01:01:51;26.23;;;20.08;;
53867;SDS011;41577;47.470;19.080;2022-11-20T01:02:05;27.15;;;19.85;;
53867;SDS011;41577;47.470;19.080;2022-11-20T01:02:19;27.27;;;20.00;;
53867;SDS011;41577;47.470;19.080;2022-11-20T01:02:33;28.08;;;20.83;;
53867;SDS011;41577;47.470;19.080;2022-11-20T01:02:47;29.63;;;21.30;;
53867;SDS011;41577;47.470;19.080;2022-11-20T01:03:01;28.58;;;20.67;;
53867;SDS011;41577;47.470;19.080;2022-11-20T01:03:15;28.20;;;20.43;;
53867;SDS011;41577;47.470;19.080;2022-11-20T01:03:30;27.60;;;20.55;;
53867;SDS011;41577;47.470;19.080;2022-11-20T01:03:44;26.30;;;19.67;;
53867;SDS011;41577;47.470;19.080;2022-11-20T01:03:59;25.45;;;19.10;;
53867;SDS011;41577;47.470;19.080;2022-11-20T01:04:13;26.33;;;19.77;;
53867;SDS011;41577;47.470;19.080;2022-11-20T01:04:27;28.08;;;20.63;;
53867;SDS011;41577;47.470;19.080;2022-11-20T01:04:41;28.03;;;20.60;;
53867;SDS011;41577;47.470;19.080;2022-11-20T01:04:55;29.55;;;20.00;;
53867;SDS011;41577;47.470;19.080;2022-11-20T01:05:08;28.17;;;19.60;;
53867;SDS011;41577;47.470;19.080;2022-11-20T01:05:24;28.67;;;20.13;;
53867;SDS011;41577;47.470;19.080;2022-11-20T01:05:38;28.95;;;20.77;;
53867;SDS011;41577;47.470;19.080;2022-11-20T01:05:52;30.02;;;21.13;;
53867;SDS011;41577;47.470;19.080;2022-11-20T01:06:06;29.23;;;21.17;;
53867;SDS011;41577;47.470;19.080;2022-11-20T01:06:23;27.27;;;21.08;;
53867;SDS011;41577;47.470;19.080;2022-11-20T01:06:39;26.83;;;20.75;;
53867;SDS011;41577;47.470;19.080;2022-11-20T01:06:53;26.88;;;20.40;;
53867;SDS011;41577;47.470;19.080;2022-11-20T01:07:07;27.20;;;20.63;;
53867;SDS011;41577;47.470;19.080;2022-11-20T01:07:21;27.23;;;19.97;;
53867;SDS011;41577;47.470;19.080;2022-11-20T01:07:35;28.08;;;19.58;;
53867;SDS011;41577;47.470;19.080;2022-11-20T01:07:48;29.75;;;20.45;;
53867;SDS011;41577;47.470;19.080;2022-11-20T01:08:02;29.45;;;21.30;;
53867;SDS011;41577;47.470;19.080;2022-11-20T01:08:17;26.65;;;20.63;;
53867;SDS011;41577;47.470;19.080;2022-11-20T01:08:31;29.55;;;20.70;;
53867;SDS011;41577;47.470;19.080;2022-11-20T01:08:46;30.17;;;20.92;;
53867;SDS011;41577;47.470;19.080;2022-11-20T01:09:01;28.42;;;20.83;;
53867;SDS011;41577;47.470;19.080;2022-11-20T01:09:17;27.70;;;21.08;;
53867;SDS011;41577;47.470;19.080;2022-11-20T01:09:31;26.88;;;21.42;;
53867;SDS011;41577;47.470;19.080;2022-11-20T01:09:45;28.30;;;21.38;;
53867;SDS011;41577;47.470;19.080;2022-11-20T01:09:59;28.98;;;21.30;;
53867;SDS011;41577;47.470;19.080;2022-11-20T01:10:12;30.03;;;21.60;;
53867;SDS011;41577;47.470;19.080;2022-11-20T01:10:26;29.73;;;21.40;;
53867;SDS011;41577;47.470;19.080;2022-11-20T01:10:40;27.15;;;20.40;;
53867;SDS011;41577;47.470;19.080;2022-11-20T01:10:58;25.65;;;19.85;;
53867;SDS011;41577;47.470;19.080;2022-11-20T01:11:13;29.58;;;20.85;;
53867;SDS011;41577;47.470;19.080;2022-11-20T01:11:29;33.50;;;21.40;;
53867;SDS011;41577;47.470;19.080;2022-11-20T01:11:44;33.08;;;22.17;;
53867;SDS011;41577;47.470;19.080;2022-11-20T01:11:58;29.63;;;21.73;;
53867;SDS011;41577;47.470;19.080;2022-11-20T01:12:12;28.27;;;20.87;;
53867;SDS011;41577;47.470;19.080;2022-11-20T01:12:25;29.48;;;21.08;;
53867;SDS011;41577;47.470;19.080;2022-11-20T01:12:39;29.67;;;21.63;;
53867;SDS011;41577;47.470;19.080;2022-11-20T01:12:53;29.70;;;22.10;;
53867;SDS011;41577;47.470;19.080;2022-11-20T01:13:06;28.63;;;21.67;;
53867;SDS011;41577;47.470;19.080;2022-11-20T01:13:20;31.90;;;22.15;;
53867;SDS011;41577;47.470;19.080;2022-11-20T01:13:34;35.07;;;22.53;;
53867;SDS011;41577;47.470;19.080;2022-11-20T01:13:48;32.92;;;21.67;;
53867;SDS011;41577;47.470;19.080;2022-11-20T01:14:04;31.05;;;21.95;;
53867;SDS011;41577;47.470;19.080;2022-11-20T01:14:19;30.90;;;22.38;;
53867;SDS011;41577;47.470;19.080;2022-11-20T01:14:33;27.77;;;21.27;;
53867;SDS011;41577;47.470;19.080;2022-11-20T01:14:47;28.93;;;21.53;;
53867;SDS011;41577;47.470;19.080;2022-11-20T01:15:01;32.47;;;22.77;;
53867;SDS011;41577;47.470;19.080;2022-11-20T01:15:15;32.22;;;22.48;;
53867;SDS011;41577;47.470;19.080;2022-11-20T01:15:29;29.65;;;21.77;;
53867;SDS011;41577;47.470;19.080;2022-11-20T01:15:42;28.20;;;21.80;;
53867;SDS011;41577;47.470;19.080;2022-11-20T01:16:01;30.23;;;22.52;;
53867;SDS011;41577;47.470;19.080;2022-11-20T01:16:16;33.80;;;23.27;;
53867;SDS011;41577;47.470;19.080;2022-11-20T01:16:32;33.75;;;22.95;;
53867;SDS011;41577;47.470;19.080;2022-11-20T01:16:48;32.45;;;23.63;;
53867;SDS011;41577;47.470;19.080;2022-11-20T01:17:03;34.92;;;24.95;;
53867;SDS011;41577;47.470;19.080;2022-11-20T01:17:17;33.13;;;24.02;;
53867;SDS011;41577;47.470;19.080;2022-11-20T01:17:30;32.22;;;24.10;;
53867;SDS011;41577;47.470;19.080;2022-11-20T01:17:44;34.37;;;24.47;;
53867;SDS011;41577;47.470;19.080;2022-11-20T01:17:57;34.30;;;24.60;;
53867;SDS011;41577;47.470;19.080;2022-11-20T01:18:11;34.63;;;24.48;;
53867;SDS011;41577;47.470;19.080;2022-11-20T01:18:25;34.50;;;24.25;;
53867;SDS011;41577;47.470;19.080;2022-11-20T01:18:40;35.55;;;24.63;;
53867;SDS011;41577;47.470;19.080;2022-11-20T01:18:56;35.85;;;24.95;;
53867;SDS011;41577;47.470;19.080;2022-11-20T01:19:13;37.90;;;25.70;;
53867;SDS011;41577;47.470;19.080;2022-11-20T01:19:28;37.42;;;24.48;;
53867;SDS011;41577;47.470;19.080;2022-11-20T01:19:42;38.15;;;24.27;;
53867;SDS011;41577;47.470;19.080;2022-11-20T01:19:56;36.80;;;24.27;;
53867;SDS011;41577;47.470;19.080;2022-11-20T01:20:10;33.57;;;24.50;;
53867;SDS011;41577;47.470;19.080;2022-11-20T01:20:25;33.65;;;25.02;;
53867;SDS011;41577;47.470;19.080;2022-11-20T01:20:39;34.17;;;25.23;;
53867;SDS011;41577;47.470;19.080;2022-11-20T01:20:53;33.90;;;24.65;;
53867;SDS011;41577;47.470;19.080;2022-11-20T01:21:08;34.95;;;25.00;;
53867;SDS011;41577;47.470;19.080;2022-11-20T01:21:24;36.75;;;25.73;;
53867;SDS011;41577;47.470;19.080;2022-11-20T01:21:39;37.00;;;25.45;;
53867;SDS011;41577;47.470;19.080;2022-11-20T01:21:54;37.53;;;26.05;;
53867;SDS011;41577;47.470;19.080;2022-11-20T01:22:08;40.17;;;26.00;;
53867;SDS011;41577;47.470;19.080;2022-11-20T01:22:22;41.47;;;25.33;;
53867;SDS011;41577;47.470;19.080;2022-11-20T01:22:36;38.38;;;25.40;;
53867;SDS011;41577;47.470;19.080;2022-11-20T01:22:50;37.22;;;26.25;;